Time;durP1;ratioP1;P1;durP2;ratioP2;P2;SDS_P1;SDS_P2;PMS_P1;PMS_P2;Temp;Humidity;BMP_temperature;BMP_pressure;BME280_temperature;BME280_humidity;BME280_pressure;Samples;Min_cycle;Max_cycle;Signal;HPM_P1;HPM_P2
2023/01/06 00:01:05;;;;;;;;;;;9.60;99.90;;;9.21;100.00;97840.22;5032751;28;19925;-41
2023/01/06 00:03:31;;;;;;;;;;;9.70;99.90;;;9.24;100.00;97842.75;5035213;28;19925;-41
2023/01/06 00:06:01;;;;;;;;;;;9.70;99.90;;;9.30;100.00;97846.09;5030339;28;20290;-41
2023/01/06 00:08:26;;;;;;;;;;;9.80;99.90;;;9.33;100.00;97842.50;5014128;28;19921;-41
2023/01/06 00:10:52;;;;;;;;;;;9.80;99.90;;;9.39;100.00;97838.88;5028998;28;20395;-42
2023/01/06 00:13:18;;;;;;;;;;;9.90;99.90;;;9.43;100.00;97837.91;5030458;28;19928;-41
2023/01/06 00:15:43;;;;;;;;;;;9.90;99.90;;;9.43;100.00;97832.63;5018865;28;20009;-40
2023/01/06 00:18:09;;;;;;;;;;;9.90;99.90;;;9.43;100.00;97833.50;5024035;28;19921;-41
2023/01/06 00:20:34;;;;;;;;;;;10.00;99.90;;;9.43;100.00;97832.63;5029673;28;20258;-41
2023/01/06 00:23:00;;;;;;;;;;;9.90;99.90;;;9.43;100.00;97832.63;5022397;28;20584;-42
2023/01/06 00:25:26;;;;;;;;;;;9.90;99.90;;;9.48;100.00;97836.88;5029853;28;19924;-40
2023/01/06 00:27:51;;;;;;;;;;;9.90;99.90;;;9.41;100.00;97837.09;5032539;28;20002;-41
2023/01/06 00:30:17;;;;;;;;;;;9.90;99.90;;;9.36;100.00;97835.41;5035305;28;19920;-41
2023/01/06 00:32:42;;;;;;;;;;;9.90;99.90;;;9.37;100.00;97836.28;5038779;28;19921;-41
2023/01/06 00:35:08;;;;;;;;;;;9.90;99.90;;;9.34;100.00;97836.34;5033500;28;19956;-41
2023/01/06 00:37:34;;;;;;;;;;;9.80;99.90;;;9.31;100.00;97823.25;5032141;28;19923;-41
2023/01/06 00:40:00;;;;;;;;;;;9.80;99.90;;;9.26;100.00;97830.41;5034609;28;19917;-41
2023/01/06 00:42:25;;;;;;;;;;;9.80;99.90;;;9.18;100.00;97817.44;5033497;28;20404;-41
2023/01/06 00:44:51;;;;;;;;;;;9.70;99.90;;;9.15;100.00;97828.03;5032408;28;19973;-42
2023/01/06 00:47:17;;;;;;;;;;;9.70;99.90;;;9.08;100.00;97823.84;5034698;28;19974;-41
2023/01/06 00:49:42;;;;;;;;;;;9.60;99.90;;;8.92;100.00;97804.94;5032111;28;19921;-41
2023/01/06 00:52:08;;;;;;;;;;;9.50;99.90;;;8.87;100.00;97819.97;5018141;28;20008;-41
2023/01/06 00:54:35;;;;;;;;;;;9.40;99.90;;;8.83;100.00;97808.66;5026850;28;19925;-41
2023/01/06 00:57:02;;;;;;;;;;;9.30;99.90;;;8.79;100.00;97813.13;5032744;28;20261;-42
2023/01/06 00:59:27;;;;;;;;;;;9.30;99.90;;;8.85;100.00;97822.63;5035043;28;19971;-41
2023/01/06 01:01:55;;;;;;;;;;;9.30;99.90;;;8.82;100.00;97814.81;5031183;28;19929;-41
2023/01/06 01:04:22;;;;;;;;;;;9.40;99.90;;;8.79;100.00;97814.84;5032663;28;19929;-42
2023/01/06 01:06:49;;;;;;;;;;;9.40;99.90;;;8.77;100.00;97816.66;5031510;28;19917;-41
2023/01/06 01:09:20;;;;;;;;;;;9.30;99.90;;;8.75;100.00;97814.06;5033968;28;19925;-41
2023/01/06 01:14:30;;;;;;;;;;;9.30;99.90;;;8.72;100.00;97808.00;5014414;28;19925;-42
2023/01/06 01:16:56;;;;;;;;;;;9.30;99.90;;;8.71;100.00;97808.94;5008094;28;19921;-41
2023/01/06 01:19:22;;;;;;;;;;;9.20;99.90;;;8.67;100.00;97812.50;5026438;28;19971;-41
2023/01/06 01:21:48;;;;;;;;;;;9.20;99.90;;;8.60;100.00;97807.41;5024260;28;19925;-41
2023/01/06 01:24:14;;;;;;;;;;;9.20;99.90;;;8.56;100.00;97803.13;5013812;28;19924;-41
2023/01/06 01:26:39;;;;;;;;;;;9.20;99.90;;;8.63;100.00;97808.22;5025029;28;19924;-41
2023/01/06 01:29:05;;;;;;;;;;;9.20;99.90;;;8.66;100.00;97802.91;5017366;28;19929;-42
2023/01/06 01:31:31;;;;;;;;;;;9.20;99.90;;;8.69;100.00;97808.97;5034485;28;20039;-41
2023/01/06 01:33:56;;;;;;;;;;;9.30;99.90;;;8.73;100.00;97805.34;5028063;28;20269;-41
2023/01/06 01:36:22;;;;;;;;;;;9.30;99.90;;;8.79;100.00;97805.22;5022960;28;19978;-42
2023/01/06 01:38:48;;;;;;;;;;;9.30;99.90;;;8.79;100.00;97804.34;5025224;28;20015;-42
2023/01/06 01:41:16;;;;;;;;;;;9.30;99.90;;;8.81;100.00;97805.19;5024899;28;19924;-42
2023/01/06 01:43:47;;;;;;;;;;;9.30;99.90;;;8.78;100.00;97802.63;5025469;28;20399;-42
2023/01/06 01:46:18;;;;;;;;;;;9.30;99.90;;;8.76;100.00;97797.41;5020749;28;19920;-42
2023/01/06 01:48:44;;;;;;;;;;;9.30;99.90;;;8.77;100.00;97793.88;5005386;28;20409;-41
2023/01/06 01:51:12;;;;;;;;;;;9.30;99.90;;;8.78;100.00;97795.59;5023329;28;19921;-42
2023/01/06 01:53:42;;;;;;;;;;;9.30;99.90;;;8.82;100.00;97799.03;5009450;28;19921;-41
2023/01/06 01:56:11;;;;;;;;;;;9.40;99.90;;;8.81;100.00;97792.06;5008938;28;20217;-41
2023/01/06 01:58:44;;;;;;;;;;;9.40;99.90;;;8.77;100.00;97795.63;5029124;28;19924;-41
2023/01/06 02:01:11;;;;;;;;;;;9.40;99.90;;;8.81;100.00;97797.31;5022324;28;19924;-41
2023/01/06 02:03:38;;;;;;;;;;;9.40;99.90;;;8.84;100.00;97794.59;5009665;28;19952;-42
2023/01/06 02:06:12;;;;;;;;;;;9.40;99.90;;;8.84;100.00;97793.72;5023609;28;20156;-42
2023/01/06 02:08:51;;;;;;;;;;;9.40;99.90;;;8.87;100.00;97791.88;5026162;28;20381;-42
2023/01/06 02:11:16;;;;;;;;;;;9.40;99.90;;;8.79;100.00;97778.94;5026134;28;20045;-41
2023/01/06 02:13:43;;;;;;;;;;;9.40;99.90;;;8.88;100.00;97800.63;5023293;28;20274;-41
2023/01/06 02:16:29;;;;;;;;;;;9.40;99.90;;;8.86;100.00;97800.66;5009918;28;20380;-42
2023/01/06 02:19:18;;;;;;;;;;;9.40;99.90;;;8.76;100.00;97775.50;5008962;28;19917;-41
2023/01/06 02:22:02;;;;;;;;;;;9.40;99.90;;;8.85;100.00;97780.53;5028509;28;19921;-41
2023/01/06 02:25:06;;;;;;;;;;;9.40;99.90;;;8.90;100.00;97790.94;5023340;28;19948;-42
2023/01/06 02:27:45;;;;;;;;;;;9.40;99.90;;;8.88;100.00;97771.69;5061049;23;19925;-51
2023/01/06 02:30:38;;;;;;;;;;;9.50;99.90;;;8.94;100.00;97780.31;5069132;28;19978;-52
2023/01/06 02:33:16;;;;;;;;;;;9.50;99.90;;;8.97;100.00;97775.00;5055963;28;20418;-52
2023/01/06 02:35:44;;;;;;;;;;;9.50;99.90;;;9.00;100.00;97778.44;5046683;28;20051;-52
2023/01/06 02:38:41;;;;;;;;;;;9.50;99.90;;;9.03;100.00;97781.88;5056778;28;19920;-51
2023/01/06 02:41:18;;;;;;;;;;;9.60;99.90;;;9.05;100.00;97774.78;5046074;28;19999;-51
2023/01/06 02:43:45;;;;;;;;;;;9.60;99.90;;;9.09;100.00;97770.31;5043871;28;20294;-48
2023/01/06 02:46:32;;;;;;;;;;;9.60;99.90;;;9.09;100.00;97770.31;5044368;28;21325;-51
2023/01/06 02:48:58;;;;;;;;;;;9.60;99.90;;;9.12;100.00;97771.09;5052010;28;19921;-47
2023/01/06 02:51:31;;;;;;;;;;;9.70;99.90;;;9.13;100.00;97771.97;5050869;28;19969;-52
2023/01/06 02:54:14;;;;;;;;;;;9.70;99.90;;;9.13;100.00;97772.84;5051515;28;19946;-50
2023/01/06 02:56:45;;;;;;;;;;;9.70;99.90;;;9.11;100.00;97774.63;5046154;28;20002;-48
2023/01/06 02:59:19;;;;;;;;;;;9.60;99.90;;;9.07;100.00;97778.25;5053869;28;19920;-51
2023/01/06 03:01:46;;;;;;;;;;;9.60;99.90;;;9.02;100.00;97769.59;5051669;28;19922;-52
2023/01/06 03:04:16;;;;;;;;;;;9.60;99.90;;;9.05;100.00;97776.56;5054092;28;20007;-52
2023/01/06 03:06:44;;;;;;;;;;;9.60;99.90;;;9.03;100.00;97767.84;5056566;28;19943;-49
2023/01/06 03:09:18;;;;;;;;;;;9.60;99.90;;;9.03;100.00;97776.59;5054828;28;19929;-52
2023/01/06 03:11:46;;;;;;;;;;;9.50;99.90;;;9.01;100.00;97764.38;5048323;28;19924;-50
2023/01/06 03:14:16;;;;;;;;;;;9.60;99.90;;;8.98;100.00;97757.44;5044432;28;19974;-51
2023/01/06 03:16:42;;;;;;;;;;;9.50;99.90;;;8.96;100.00;97759.25;5052047;28;19939;-49
2023/01/06 03:19:07;;;;;;;;;;;9.50;99.90;;;8.99;100.00;97767.06;5048471;28;20051;-51
2023/01/06 03:21:36;;;;;;;;;;;9.50;99.90;;;9.01;100.00;97761.75;5050289;28;19916;-51
2023/01/06 03:24:06;;;;;;;;;;;9.50;99.90;;;8.98;100.00;97758.28;5044547;28;20533;-52
2023/01/06 03:26:32;;;;;;;;;;;9.50;99.90;;;8.95;100.00;97758.38;5045714;28;20403;-50
2023/01/06 03:28:58;;;;;;;;;;;9.50;99.90;;;8.89;100.00;97760.28;5051785;28;19920;-51
2023/01/06 03:31:34;;;;;;;;;;;9.40;99.90;;;8.77;100.00;97754.44;5047177;28;20010;-51
2023/01/06 03:34:27;;;;;;;;;;;9.30;99.90;;;8.68;100.00;97745.88;5054701;28;19921;-49
2023/01/06 03:37:08;;;;;;;;;;;9.20;99.90;;;8.51;100.00;97741.91;5046679;28;19977;-51
2023/01/06 03:39:54;;;;;;;;;;;9.10;99.90;;;8.37;100.00;97749.19;5050453;28;19943;-50
2023/01/06 03:45:55;;;;;;;;;;;8.80;99.90;;;8.18;100.00;97762.75;5052394;28;20537;-48
2023/01/06 03:48:35;;;;;;;;;;;8.70;99.90;;;8.16;100.00;97756.63;5053018;28;19928;-50
2023/01/06 03:51:06;;;;;;;;;;;8.70;99.90;;;8.14;100.00;97755.81;5053046;28;20010;-50
2023/01/06 03:53:59;;;;;;;;;;;8.70;99.90;;;8.13;100.00;97761.97;5052778;28;19970;-50
2023/01/06 03:56:39;;;;;;;;;;;8.70;99.90;;;8.06;100.00;97760.38;5043237;28;19916;-47
2023/01/06 03:59:16;;;;;;;;;;;8.60;99.90;;;7.95;100.00;97757.09;5046453;28;20352;-49
2023/01/06 04:01:42;;;;;;;;;;;8.50;99.90;;;7.87;100.00;97756.41;5045807;28;19926;-52
2023/01/06 04:04:08;;;;;;;;;;;8.40;99.90;;;7.80;100.00;97760.91;5056913;28;20009;-51
2023/01/06 04:06:34;;;;;;;;;;;8.30;99.90;;;7.71;100.00;97764.56;5048274;28;20022;-51
2023/01/06 04:09:00;;;;;;;;;;;8.30;99.90;;;7.60;100.00;97759.53;5045889;28;19929;-53
2023/01/06 04:14:10;;;;;;;;;;;8.10;99.90;;;7.56;100.00;97755.25;5051312;28;19966;-48
2023/01/06 04:16:35;;;;;;;;;;;8.10;99.90;;;7.50;100.00;97747.50;5053147;28;20213;-48
2023/01/06 04:19:01;;;;;;;;;;;8.10;99.90;;;7.52;100.00;97743.09;5052438;28;19916;-50
2023/01/06 04:21:27;;;;;;;;;;;8.10;99.90;;;7.61;100.00;97739.41;5053448;28;19916;-48
2023/01/06 04:23:52;;;;;;;;;;;8.10;99.90;;;7.58;100.00;97736.84;5057783;28;19969;-49
2023/01/06 04:26:18;;;;;;;;;;;8.10;99.90;;;7.62;100.00;97733.25;5053043;28;19921;-48
2023/01/06 04:28:44;;;;;;;;;;;8.20;99.90;;;7.66;100.00;97734.91;5055397;28;20097;-52
2023/01/06 04:31:10;;;;;;;;;;;8.20;99.90;;;7.73;100.00;97740.91;5050841;28;19921;-52
2023/01/06 04:33:36;;;;;;;;;;;8.30;99.90;;;7.74;100.00;97738.28;5050105;28;19920;-49
2023/01/06 04:36:02;;;;;;;;;;;8.30;99.90;;;7.74;100.00;97733.00;5051039;28;19948;-48
2023/01/06 04:38:28;;;;;;;;;;;8.30;99.90;;;7.75;100.00;97736.50;5046518;28;19931;-49
2023/01/06 04:40:54;;;;;;;;;;;8.30;99.90;;;7.77;100.00;97743.47;5052683;28;19916;-48
2023/01/06 04:43:20;;;;;;;;;;;8.40;99.90;;;7.86;100.00;97737.16;5052883;28;19924;-49
2023/01/06 04:45:46;;;;;;;;;;;8.40;99.90;;;7.91;100.00;97735.28;5050241;28;19997;-50
2023/01/06 04:48:12;;;;;;;;;;;8.50;99.90;;;7.92;100.00;97731.78;5047954;28;19954;-48
2023/01/06 04:50:38;;;;;;;;;;;8.50;99.90;;;7.97;100.00;97742.19;5048696;28;19916;-50
2023/01/06 04:53:04;;;;;;;;;;;8.60;99.90;;;8.01;100.00;97736.81;5049578;28;19962;-49
2023/01/06 04:55:30;;;;;;;;;;;8.60;99.90;;;8.07;100.00;97732.34;5051951;28;19932;-50
2023/01/06 04:57:56;;;;;;;;;;;8.60;99.90;;;8.12;100.00;97739.22;5052626;28;19916;-50
2023/01/06 05:00:21;;;;;;;;;;;8.70;99.90;;;8.19;100.00;97734.69;5045306;28;19920;-49
2023/01/06 05:02:47;;;;;;;;;;;8.80;99.90;;;8.27;100.00;97732.75;5047400;28;19939;-51
2023/01/06 05:05:14;;;;;;;;;;;8.80;99.90;;;8.32;100.00;97730.03;5046161;28;19975;-51
2023/01/06 05:07:39;;;;;;;;;;;8.90;99.90;;;8.33;100.00;97729.16;5039550;28;20094;-52
2023/01/06 05:10:06;;;;;;;;;;;8.90;99.90;;;8.36;100.00;97732.56;5049579;28;19941;-50
2023/01/06 05:12:32;;;;;;;;;;;8.90;99.90;;;8.40;100.00;97731.59;5048524;28;19924;-50
2023/01/06 05:14:58;;;;;;;;;;;9.00;99.90;;;8.43;100.00;97720.16;5052751;28;19967;-50
2023/01/06 05:17:23;;;;;;;;;;;9.00;99.90;;;8.47;100.00;97720.97;5048573;28;20007;-50
2023/01/06 05:19:49;;;;;;;;;;;9.00;99.90;;;8.51;100.00;97735.78;5042381;28;20092;-52
2023/01/06 05:22:14;;;;;;;;;;;9.10;99.90;;;8.52;100.00;97721.72;5042429;28;19924;-50
2023/01/06 05:24:40;;;;;;;;;;;9.10;99.90;;;8.51;100.00;97720.00;5049890;28;20015;-51
2023/01/06 05:27:06;;;;;;;;;;;9.10;99.90;;;8.50;100.00;97726.16;5049152;28;19931;-51
2023/01/06 05:29:32;;;;;;;;;;;9.10;99.90;;;8.54;100.00;97733.06;5051456;28;20334;-48
2023/01/06 05:31:57;;;;;;;;;;;9.10;99.90;;;8.54;100.00;97728.69;5050692;28;19952;-52
2023/01/06 05:34:23;;;;;;;;;;;9.10;99.90;;;8.51;100.00;97718.22;5050697;28;19986;-51
2023/01/06 05:36:49;;;;;;;;;;;9.10;99.90;;;8.58;100.00;97726.84;5047040;28;19924;-51
2023/01/06 05:39:14;;;;;;;;;;;9.10;99.90;;;8.59;100.00;97724.16;5046542;28;20307;-48
2023/01/06 05:41:40;;;;;;;;;;;9.10;99.90;;;8.60;100.00;97723.28;5054009;28;19924;-51
2023/01/06 05:44:06;;;;;;;;;;;9.20;99.90;;;8.63;100.00;97718.84;5046935;28;20372;-51
2023/01/06 05:46:31;;;;;;;;;;;9.20;99.90;;;8.63;100.00;97724.09;5041561;28;19935;-48
2023/01/06 05:48:59;;;;;;;;;;;9.20;99.90;;;8.65;100.00;97730.16;5049647;28;19935;-50
2023/01/06 05:51:25;;;;;;;;;;;9.20;99.90;;;8.65;100.00;97730.16;5040403;28;19916;-50
2023/01/06 05:53:50;;;;;;;;;;;9.20;99.90;;;8.65;100.00;97725.81;5044028;28;19921;-51
2023/01/06 05:56:18;;;;;;;;;;;9.20;99.90;;;8.42;100.00;97684.28;5043348;28;19964;-48
2023/01/06 05:58:45;;;;;;;;;;;9.20;99.90;;;8.65;100.00;97720.53;5049031;28;19924;-51
2023/01/06 06:01:22;;;;;;;;;;;9.20;99.90;;;8.64;100.00;97716.16;5049648;28;19931;-47
2023/01/06 06:03:48;;;;;;;;;;;9.20;99.90;;;8.63;100.00;97716.22;5034283;28;19917;-52
2023/01/06 06:06:14;;;;;;;;;;;9.20;99.90;;;8.61;100.00;97713.59;5049527;28;19963;-51
2023/01/06 06:08:40;;;;;;;;;;;9.20;99.90;;;8.56;100.00;97713.75;5055430;28;20191;-48
2023/01/06 06:11:08;;;;;;;;;;;9.20;99.90;;;8.59;100.00;97716.28;5055607;28;20367;-51
2023/01/06 06:13:34;;;;;;;;;;;9.20;99.90;;;8.58;100.00;97716.34;5054289;28;20403;-51
2023/01/06 06:16:08;;;;;;;;;;;9.10;99.90;;;8.54;100.00;97719.91;5052411;28;20234;-53
2023/01/06 06:18:39;;;;;;;;;;;9.10;99.90;;;8.54;100.00;97726.06;5033123;28;19920;-52
2023/01/06 06:21:05;;;;;;;;;;;9.10;99.90;;;8.53;100.00;97719.06;5047928;28;20385;-52
2023/01/06 06:23:30;;;;;;;;;;;9.10;99.90;;;8.50;100.00;97715.63;5056841;28;19924;-51
2023/01/06 06:25:56;;;;;;;;;;;9.10;99.90;;;8.48;100.00;97707.78;5058031;28;20261;-51
2023/01/06 06:28:22;;;;;;;;;;;9.10;99.90;;;8.51;100.00;97733.16;5047257;28;19928;-52
2023/01/06 06:30:48;;;;;;;;;;;9.10;99.90;;;8.49;100.00;97735.81;5052524;28;19924;-52
2023/01/06 06:33:13;;;;;;;;;;;9.10;99.90;;;8.51;100.00;97728.75;5051298;28;19928;-51
2023/01/06 06:35:39;;;;;;;;;;;9.10;99.90;;;8.52;100.00;97726.97;5053866;28;19959;-49
2023/01/06 06:38:04;;;;;;;;;;;9.10;99.90;;;8.50;100.00;97720.91;5046597;28;20257;-51
2023/01/06 06:40:30;;;;;;;;;;;9.10;99.90;;;8.52;100.00;97719.94;5047992;28;19950;-50
2023/01/06 06:42:56;;;;;;;;;;;9.10;99.90;;;8.56;100.00;97719.00;5053097;28;19940;-50
2023/01/06 06:45:22;;;;;;;;;;;9.10;99.90;;;8.61;100.00;97726.75;5055530;28;19924;-50
2023/01/06 06:47:47;;;;;;;;;;;9.10;99.90;;;8.63;100.00;97718.84;5047648;28;20345;-51
2023/01/06 06:50:13;;;;;;;;;;;9.20;99.90;;;8.67;100.00;97718.75;5051102;28;19974;-51
2023/01/06 06:52:39;;;;;;;;;;;9.20;99.90;;;8.72;100.00;97724.75;5050197;28;19935;-51
2023/01/06 06:55:05;;;;;;;;;;;9.30;99.90;;;8.77;100.00;97733.41;5055750;28;19923;-51
2023/01/06 06:57:30;;;;;;;;;;;9.30;99.90;;;8.80;100.00;97737.72;5054703;28;20181;-52
2023/01/06 06:59:56;;;;;;;;;;;9.40;99.90;;;8.87;100.00;97741.06;5056525;28;20364;-49
2023/01/06 07:02:21;;;;;;;;;;;9.40;99.90;;;8.90;100.00;97735.69;5048253;28;20011;-51
2023/01/06 07:04:47;;;;;;;;;;;9.40;99.90;;;8.90;100.00;97739.22;5050457;28;20339;-49
2023/01/06 07:07:13;;;;;;;;;;;9.50;99.90;;;8.91;100.00;97738.28;5055360;28;20016;-50
2023/01/06 07:09:38;;;;;;;;;;;9.50;99.90;;;8.95;100.00;97723.31;5047393;28;19931;-52
2023/01/06 07:12:04;;;;;;;;;;;9.50;99.90;;;8.94;100.00;97735.59;5041113;28;19964;-50
2023/01/06 07:14:30;;;;;;;;;;;9.50;99.90;;;8.93;100.00;97746.16;5044128;28;19920;-47
2023/01/06 07:16:59;;;;;;;;;;;9.50;99.90;;;8.93;100.00;97754.91;5046692;28;19955;-51
2023/01/06 07:19:24;;;;;;;;;;;9.50;99.90;;;8.91;100.00;97754.09;5052973;28;19925;-53
2023/01/06 07:21:50;;;;;;;;;;;9.50;99.90;;;8.91;100.00;97753.22;5047559;28;20169;-50
2023/01/06 07:24:15;;;;;;;;;;;9.50;99.90;;;8.88;100.00;97759.44;5051762;28;20375;-51
2023/01/06 07:26:41;;;;;;;;;;;9.50;99.90;;;8.90;100.00;97768.16;5053537;28;19928;-51
2023/01/06 07:29:07;;;;;;;;;;;9.50;99.90;;;8.94;100.00;97777.69;5048875;28;20023;-49
2023/01/06 07:31:32;;;;;;;;;;;9.50;99.90;;;8.83;100.00;97763.06;5043230;28;19920;-52
2023/01/06 07:33:58;;;;;;;;;;;9.50;99.90;;;8.89;100.00;97784.81;5050206;28;19916;-48
2023/01/06 07:36:23;;;;;;;;;;;9.40;99.90;;;8.85;100.00;97790.22;5044740;28;20401;-49
2023/01/06 07:38:49;;;;;;;;;;;9.40;99.90;;;8.78;100.00;97789.47;5051317;28;20055;-50
2023/01/06 07:41:15;;;;;;;;;;;9.40;99.90;;;8.78;100.00;97790.34;5048287;28;20453;-51
2023/01/06 07:43:40;;;;;;;;;;;9.30;99.90;;;8.75;100.00;97792.19;5048085;28;19942;-48
2023/01/06 07:46:06;;;;;;;;;;;9.40;99.90;;;8.76;100.00;97796.53;5046098;28;19948;-49
2023/01/06 07:48:31;;;;;;;;;;;9.30;99.90;;;8.74;100.00;97800.94;5054106;28;20360;-48
2023/01/06 07:50:57;;;;;;;;;;;9.30;99.90;;;8.75;100.00;97806.19;5048780;28;20006;-53
2023/01/06 07:53:23;;;;;;;;;;;9.30;99.90;;;8.70;100.00;97804.56;5049240;28;19916;-53
2023/01/06 07:55:50;;;;;;;;;;;9.30;99.90;;;8.73;100.00;97802.72;5051510;28;20304;-49
2023/01/06 07:58:17;;;;;;;;;;;9.30;99.90;;;8.76;100.00;97804.44;5050586;28;20438;-53
2023/01/06 08:00:42;;;;;;;;;;;9.30;99.90;;;8.78;100.00;97813.16;5048773;28;19961;-50
2023/01/06 08:03:08;;;;;;;;;;;9.40;99.90;;;8.77;100.00;97807.03;5045650;28;19924;-52
2023/01/06 08:05:40;;;;;;;;;;;9.40;99.90;;;8.75;100.00;97810.59;5049676;28;19920;-52
2023/01/06 08:08:05;;;;;;;;;;;9.30;99.90;;;8.77;100.00;97824.56;5050729;28;19967;-50
2023/01/06 08:10:31;;;;;;;;;;;9.30;99.90;;;8.76;100.00;97817.59;5052353;28;20083;-52
2023/01/06 08:12:57;;;;;;;;;;;9.30;99.90;;;8.73;100.00;97809.75;5050670;28;20388;-52
2023/01/06 08:15:22;;;;;;;;;;;9.30;99.90;;;8.75;100.00;97818.47;5055938;28;19963;-53
2023/01/06 08:17:52;;;;;;;;;;;9.30;99.90;;;8.71;100.00;97828.19;5053059;28;19928;-49
2023/01/06 08:20:17;;;;;;;;;;;9.30;99.90;;;8.71;100.00;97819.44;5054539;28;19921;-49
2023/01/06 08:22:43;;;;;;;;;;;9.30;99.90;;;8.67;100.00;97821.28;5048996;28;19917;-50
2023/01/06 08:25:09;;;;;;;;;;;9.30;99.90;;;8.63;100.00;97811.72;5049320;28;20331;-53
2023/01/06 08:27:34;;;;;;;;;;;9.20;99.90;;;8.65;100.00;97815.19;5044350;23;20114;-40
2023/01/06 08:30:00;;;;;;;;;;;9.20;99.90;;;8.70;100.00;97820.34;4990022;28;19929;-40
2023/01/06 08:32:26;;;;;;;;;;;9.20;99.90;;;8.67;100.00;97810.78;5000840;28;20285;-43
2023/01/06 08:34:52;;;;;;;;;;;9.30;99.90;;;8.74;100.00;97828.13;5014286;28;19978;-43
2023/01/06 08:37:17;;;;;;;;;;;9.30;99.90;;;8.63;100.00;97837.16;5016404;28;19925;-44
2023/01/06 08:39:43;;;;;;;;;;;9.30;99.90;;;8.62;100.00;97835.44;4998553;28;20423;-44
2023/01/06 08:42:09;;;;;;;;;;;9.20;99.90;;;8.51;100.00;97831.28;5010366;28;20004;-40
2023/01/06 08:44:34;;;;;;;;;;;9.20;99.90;;;8.48;100.00;97828.69;4997696;28;20044;-40
2023/01/06 08:47:00;;;;;;;;;;;9.10;99.90;;;8.23;100.00;97805.53;5004383;28;21763;-40
2023/01/06 08:49:26;;;;;;;;;;;9.10;99.90;;;8.36;100.00;97835.06;5008567;28;20071;-40
2023/01/06 08:51:51;;;;;;;;;;;9.00;99.90;;;8.29;100.00;97836.09;5005956;28;19917;-40
2023/01/06 08:54:17;;;;;;;;;;;9.00;99.90;;;8.21;100.00;97824.88;4987402;28;19928;-40
2023/01/06 08:56:43;;;;;;;;;;;8.90;99.90;;;8.21;100.00;97830.97;5006751;28;20436;-41
2023/01/06 08:59:11;;;;;;;;;;;8.90;99.90;;;8.16;100.00;97831.97;5003920;28;19913;-40
2023/01/06 09:01:37;;;;;;;;;;;8.80;99.90;;;8.13;100.00;97846.06;4984361;28;19972;-40
2023/01/06 09:04:05;;;;;;;;;;;8.80;99.90;;;8.11;100.00;97844.34;5009794;28;20032;-43
2023/01/06 09:06:31;;;;;;;;;;;8.80;99.90;;;8.18;100.00;97848.56;5006125;28;19925;-40
2023/01/06 09:08:57;;;;;;;;;;;8.80;99.90;;;8.14;100.00;97852.16;5006864;28;19921;-40
2023/01/06 09:11:23;;;;;;;;;;;8.80;99.90;;;8.11;100.00;97847.84;5006261;28;19944;-41
2023/01/06 09:13:49;;;;;;;;;;;8.80;99.90;;;8.18;100.00;97859.97;5004528;28;20360;-40
2023/01/06 09:16:15;;;;;;;;;;;8.80;99.90;;;8.21;100.00;97859.03;5000789;28;19971;-41
2023/01/06 09:18:47;;;;;;;;;;;8.90;99.90;;;8.33;100.00;97863.19;5005525;28;20344;-40
2023/01/06 09:21:12;;;;;;;;;;;9.00;99.90;;;8.34;100.00;97849.13;4999695;28;19928;-40
2023/01/06 09:23:38;;;;;;;;;;;9.00;99.90;;;8.53;100.00;97855.75;4981768;28;19921;-40
2023/01/06 09:26:04;;;;;;;;;;;9.10;99.90;;;8.60;100.00;97865.25;5004315;28;19929;-40
2023/01/06 09:28:30;;;;;;;;;;;9.20;99.90;;;8.71;100.00;97862.38;5005898;28;20416;-41
2023/01/06 09:30:56;;;;;;;;;;;9.30;99.90;;;8.82;100.00;97866.53;4988034;28;20444;-40
2023/01/06 09:33:21;;;;;;;;;;;9.40;99.90;;;8.88;100.00;97875.16;4986849;28;19925;-41
2023/01/06 09:35:47;;;;;;;;;;;9.50;99.90;;;8.96;100.00;97865.31;5006942;28;19955;-41
2023/01/06 09:38:13;;;;;;;;;;;9.60;99.90;;;9.06;100.00;97871.25;5009060;28;19982;-40
2023/01/06 09:41:07;;;;;;;;;;;9.70;99.90;;;9.26;100.00;97870.78;5009984;28;20426;-40
2023/01/06 09:43:50;;;;;;;;;;;9.80;99.90;;;9.41;100.00;97868.66;4987722;28;19940;-41
2023/01/06 09:46:19;;;;;;;;;;;10.00;99.90;;;9.55;100.00;97883.22;5008693;28;19964;-39
2023/01/06 09:48:53;;;;;;;;;;;10.20;99.90;;;9.69;100.00;97882.88;4998978;28;20011;-40
2023/01/06 09:51:20;;;;;;;;;;;10.20;99.90;;;9.88;100.00;97874.47;4992123;28;19925;-40
2023/01/06 09:54:15;;;;;;;;;;;10.40;99.90;;;10.03;100.00;97871.44;5007234;28;19924;-40
2023/01/06 09:56:43;;;;;;;;;;;10.60;99.90;;;10.26;100.00;97880.47;4999044;28;19964;-41
2023/01/06 09:59:19;;;;;;;;;;;10.70;99.90;;;10.43;100.00;97878.25;5002661;28;19917;-40
2023/01/06 10:01:47;;;;;;;;;;;11.00;99.90;;;10.67;100.00;97873.16;5001322;28;19925;-40
2023/01/06 10:04:22;;;;;;;;;;;11.10;99.90;;;10.65;100.00;97869.72;4987959;28;19961;-40
2023/01/06 10:07:20;;;;;;;;;;;11.20;99.90;;;10.46;100.00;97865.00;4988625;28;19944;-41
2023/01/06 10:09:56;;;;;;;;;;;11.10;99.90;;;10.28;100.00;97869.00;4980058;28;19932;-41
2023/01/06 10:12:46;;;;;;;;;;;10.90;99.90;;;10.13;100.00;97859.72;4995005;28;20015;-41
2023/01/06 10:15:35;;;;;;;;;;;10.80;99.90;;;10.06;100.00;97844.13;4994769;28;19917;-41
2023/01/06 10:18:25;;;;;;;;;;;10.70;99.90;;;10.11;100.00;97858.91;4997141;28;19925;-41
2023/01/06 10:20:54;;;;;;;;;;;10.70;99.90;;;10.26;100.00;97851.47;4995181;28;19975;-40
2023/01/06 10:23:27;;;;;;;;;;;10.80;99.90;;;10.45;100.00;97844.78;5014731;28;20055;-41
2023/01/06 10:25:53;;;;;;;;;;;11.00;99.90;;;10.63;100.00;97826.69;4996665;28;19924;-40
2023/01/06 10:28:33;;;;;;;;;;;11.20;99.90;;;10.88;100.00;97832.94;5007239;28;19929;-42
2023/01/06 10:31:01;;;;;;;;;;;11.40;99.90;;;11.01;100.00;97833.41;4993149;28;19967;-40
2023/01/06 10:33:30;;;;;;;;;;;11.50;99.90;;;11.22;100.00;97839.78;4997071;28;19921;-41
2023/01/06 10:35:56;;;;;;;;;;;11.70;99.90;;;11.39;100.00;97817.25;4993048;28;19963;-41
2023/01/06 10:38:33;;;;;;;;;;;11.90;99.90;;;11.51;100.00;97813.34;5007623;28;20266;-40
2023/01/06 10:41:09;;;;;;;;;;;12.00;99.90;;;11.64;100.00;97818.13;4989630;28;20203;-41
2023/01/06 10:43:35;;;;;;;;;;;12.10;99.90;;;11.75;100.00;97808.97;4993377;28;20408;-41
2023/01/06 10:46:00;;;;;;;;;;;12.30;99.90;;;11.80;100.00;97812.31;5016212;28;19917;-41
2023/01/06 10:48:28;;;;;;;;;;;12.30;99.90;;;11.64;100.00;97811.97;4986594;28;19972;-41
2023/01/06 10:50:53;;;;;;;;;;;12.30;99.90;;;11.64;100.00;97802.28;5014796;28;20384;-41
2023/01/06 10:53:19;;;;;;;;;;;12.20;99.90;;;11.50;100.00;97814.25;5012835;28;19963;-42
2023/01/06 10:55:47;;;;;;;;;;;12.10;99.90;;;11.31;100.00;97806.09;5011171;28;19921;-42
2023/01/06 10:58:36;;;;;;;;;;;12.00;99.90;;;11.21;100.00;97810.78;4991091;28;21652;-40
2023/01/06 11:01:07;;;;;;;;;;;11.80;99.90;;;10.97;100.00;97808.03;5011583;28;19917;-41
2023/01/06 11:03:33;;;;;;;;;;;11.60;99.90;;;11.01;100.00;97799.09;4989182;28;19928;-41
2023/01/06 11:06:14;;;;;;;;;;;11.60;99.90;;;11.17;100.00;97803.91;4993503;28;19917;-42
2023/01/06 11:08:40;;;;;;;;;;;11.60;99.90;;;11.27;100.00;97814.09;5012500;28;20278;-41
2023/01/06 11:11:24;;;;;;;;;;;11.80;99.90;;;11.24;100.00;97785.16;4991409;28;20241;-41
2023/01/06 11:13:58;;;;;;;;;;;11.80;99.90;;;11.27;100.00;97800.03;5011607;28;19924;-41
2023/01/06 11:16:27;;;;;;;;;;;11.80;99.90;;;11.31;100.00;97804.31;5006669;28;19932;-40
2023/01/06 11:18:55;;;;;;;;;;;11.80;99.90;;;11.34;100.00;97800.69;4992385;28;19917;-41
2023/01/06 11:21:21;;;;;;;;;;;11.80;99.90;;;11.34;100.00;97805.97;4990542;28;20191;-40
2023/01/06 11:23:47;;;;;;;;;;;11.90;99.90;;;11.32;100.00;97803.38;5005251;28;20397;-42
2023/01/06 11:26:16;;;;;;;;;;;11.80;99.90;;;11.17;100.00;97806.53;4972228;28;20265;-41
2023/01/06 11:28:43;;;;;;;;;;;11.70;99.90;;;11.15;100.00;97792.53;5008493;28;19921;-40
2023/01/06 11:31:20;;;;;;;;;;;11.70;99.90;;;11.06;100.00;97772.56;5002545;28;19922;-41
2023/01/06 11:33:51;;;;;;;;;;;11.70;99.90;;;11.15;100.00;97785.47;5008136;28;20059;-41
2023/01/06 11:36:17;;;;;;;;;;;11.70;99.90;;;11.24;100.00;97787.78;5012043;28;20008;-38
2023/01/06 11:38:46;;;;;;;;;;;11.70;99.90;;;11.26;100.00;97785.97;4990135;28;19956;-39